sensor_id;sensor_type;location;lat;lon;timestamp;P1;durP1;ratioP1;P2;durP2;ratioP2
37633;SDS011;32048;49.902;22.508;2022-10-16T00:01:22;23.92;;;15.15;;
37633;SDS011;32048;49.902;22.508;2022-10-16T00:03:51;27.60;;;14.73;;
37633;SDS011;32048;49.902;22.508;2022-10-16T00:06:19;22.80;;;14.20;;
37633;SDS011;32048;49.902;22.508;2022-10-16T00:08:47;26.52;;;16.05;;
37633;SDS011;32048;49.902;22.508;2022-10-16T00:11:16;27.63;;;14.93;;
37633;SDS011;32048;49.902;22.508;2022-10-16T00:13:45;24.75;;;14.30;;
37633;SDS011;32048;49.902;22.508;2022-10-16T00:16:13;28.20;;;15.63;;
37633;SDS011;32048;49.902;22.508;2022-10-16T00:18:41;26.58;;;14.15;;
37633;SDS011;32048;49.902;22.508;2022-10-16T00:21:11;26.08;;;14.60;;
37633;SDS011;32048;49.902;22.508;2022-10-16T00:23:40;24.48;;;14.63;;
37633;SDS011;32048;49.902;22.508;2022-10-16T00:26:09;26.35;;;15.13;;
37633;SDS011;32048;49.902;22.508;2022-10-16T00:28:40;26.88;;;15.90;;
37633;SDS011;32048;49.902;22.508;2022-10-16T00:31:08;28.20;;;14.75;;
37633;SDS011;32048;49.902;22.508;2022-10-16T00:33:37;27.90;;;16.97;;
37633;SDS011;32048;49.902;22.508;2022-10-16T00:36:06;26.92;;;16.17;;
37633;SDS011;32048;49.902;22.508;2022-10-16T00:38:34;25.55;;;15.90;;
37633;SDS011;32048;49.902;22.508;2022-10-16T00:41:01;28.30;;;17.20;;
37633;SDS011;32048;49.902;22.508;2022-10-16T00:46:25;29.67;;;15.68;;
37633;SDS011;32048;49.902;22.508;2022-10-16T00:49:00;30.60;;;16.25;;
37633;SDS011;32048;49.902;22.508;2022-10-16T00:51:36;28.27;;;15.73;;
37633;SDS011;32048;49.902;22.508;2022-10-16T00:54:09;24.07;;;14.97;;
37633;SDS011;32048;49.902;22.508;2022-10-16T00:56:40;28.20;;;14.55;;
37633;SDS011;32048;49.902;22.508;2022-10-16T01:01:57;24.13;;;16.25;;
37633;SDS011;32048;49.902;22.508;2022-10-16T01:04:25;25.95;;;16.58;;
37633;SDS011;32048;49.902;22.508;2022-10-16T01:10:01;28.92;;;16.02;;
37633;SDS011;32048;49.902;22.508;2022-10-16T01:15:23;25.90;;;15.60;;
37633;SDS011;32048;49.902;22.508;2022-10-16T01:18:00;26.47;;;16.03;;
37633;SDS011;32048;49.902;22.508;2022-10-16T01:20:40;32.03;;;17.47;;
37633;SDS011;32048;49.902;22.508;2022-10-16T01:23:19;26.87;;;15.80;;
37633;SDS011;32048;49.902;22.508;2022-10-16T01:28:55;25.70;;;15.77;;
37633;SDS011;32048;49.902;22.508;2022-10-16T01:31:29;27.90;;;16.40;;
37633;SDS011;32048;49.902;22.508;2022-10-16T01:34:03;29.33;;;16.92;;
37633;SDS011;32048;49.902;22.508;2022-10-16T01:36:35;25.23;;;17.53;;
37633;SDS011;32048;49.902;22.508;2022-10-16T01:39:06;33.17;;;17.88;;
37633;SDS011;32048;49.902;22.508;2022-10-16T01:41:41;28.65;;;17.95;;
37633;SDS011;32048;49.902;22.508;2022-10-16T01:44:14;29.70;;;19.25;;
37633;SDS011;32048;49.902;22.508;2022-10-16T01:46:46;25.30;;;15.70;;
37633;SDS011;32048;49.902;22.508;2022-10-16T01:49:16;31.33;;;18.02;;
37633;SDS011;32048;49.902;22.508;2022-10-16T01:51:45;31.77;;;17.00;;
37633;SDS011;32048;49.902;22.508;2022-10-16T01:54:15;26.67;;;16.70;;
37633;SDS011;32048;49.902;22.508;2022-10-16T01:56:45;24.50;;;16.30;;
37633;SDS011;32048;49.902;22.508;2022-10-16T01:59:16;25.50;;;15.10;;
37633;SDS011;32048;49.902;22.508;2022-10-16T02:01:48;26.98;;;15.05;;
37633;SDS011;32048;49.902;22.508;2022-10-16T02:04:32;24.10;;;15.05;;
37633;SDS011;32048;49.902;22.508;2022-10-16T02:07:02;25.15;;;15.48;;
37633;SDS011;32048;49.902;22.508;2022-10-16T02:09:30;23.13;;;13.85;;
37633;SDS011;32048;49.902;22.508;2022-10-16T02:12:01;19.95;;;13.60;;
37633;SDS011;32048;49.902;22.508;2022-10-16T02:14:34;19.45;;;13.52;;
37633;SDS011;32048;49.902;22.508;2022-10-16T02:17:11;21.40;;;12.07;;
37633;SDS011;32048;49.902;22.508;2022-10-16T02:19:43;16.60;;;12.20;;
37633;SDS011;32048;49.902;22.508;2022-10-16T02:22:32;16.92;;;13.07;;
37633;SDS011;32048;49.902;22.508;2022-10-16T02:30:12;20.92;;;12.57;;
37633;SDS011;32048;49.902;22.508;2022-10-16T02:32:45;22.63;;;12.60;;
37633;SDS011;32048;49.902;22.508;2022-10-16T02:35:15;19.42;;;12.88;;
37633;SDS011;32048;49.902;22.508;2022-10-16T02:37:45;18.15;;;11.75;;
37633;SDS011;32048;49.902;22.508;2022-10-16T02:40:13;17.40;;;11.25;;
37633;SDS011;32048;49.902;22.508;2022-10-16T02:42:41;22.23;;;11.93;;
37633;SDS011;32048;49.902;22.508;2022-10-16T02:45:08;19.17;;;11.32;;
37633;SDS011;32048;49.902;22.508;2022-10-16T02:47:36;19.77;;;11.67;;
37633;SDS011;32048;49.902;22.508;2022-10-16T02:50:04;22.65;;;11.77;;
37633;SDS011;32048;49.902;22.508;2022-10-16T02:52:32;21.00;;;11.25;;
37633;SDS011;32048;49.902;22.508;2022-10-16T02:54:59;16.25;;;10.75;;
37633;SDS011;32048;49.902;22.508;2022-10-16T02:57:26;16.23;;;11.05;;
37633;SDS011;32048;49.902;22.508;2022-10-16T02:59:54;20.30;;;9.82;;
37633;SDS011;32048;49.902;22.508;2022-10-16T03:02:20;17.33;;;11.07;;
37633;SDS011;32048;49.902;22.508;2022-10-16T03:04:47;16.17;;;10.13;;
37633;SDS011;32048;49.902;22.508;2022-10-16T03:07:14;15.55;;;10.07;;
37633;SDS011;32048;49.902;22.508;2022-10-16T03:09:42;19.20;;;9.20;;
37633;SDS011;32048;49.902;22.508;2022-10-16T03:12:09;13.98;;;10.13;;
37633;SDS011;32048;49.902;22.508;2022-10-16T03:14:36;14.95;;;9.80;;
37633;SDS011;32048;49.902;22.508;2022-10-16T03:17:03;13.88;;;9.52;;
37633;SDS011;32048;49.902;22.508;2022-10-16T03:19:29;14.88;;;10.02;;
37633;SDS011;32048;49.902;22.508;2022-10-16T03:21:56;16.67;;;9.90;;
37633;SDS011;32048;49.902;22.508;2022-10-16T03:24:23;18.52;;;9.68;;
37633;SDS011;32048;49.902;22.508;2022-10-16T03:26:50;13.95;;;9.48;;
37633;SDS011;32048;49.902;22.508;2022-10-16T03:29:17;13.43;;;8.75;;
37633;SDS011;32048;49.902;22.508;2022-10-16T03:31:44;15.85;;;10.25;;
37633;SDS011;32048;49.902;22.508;2022-10-16T03:34:11;13.57;;;9.15;;
37633;SDS011;32048;49.902;22.508;2022-10-16T03:36:38;13.50;;;8.60;;
37633;SDS011;32048;49.902;22.508;2022-10-16T03:39:05;15.45;;;9.85;;
37633;SDS011;32048;49.902;22.508;2022-10-16T03:41:32;19.48;;;10.80;;
37633;SDS011;32048;49.902;22.508;2022-10-16T03:43:59;14.88;;;9.10;;
37633;SDS011;32048;49.902;22.508;2022-10-16T03:46:25;17.88;;;9.23;;
37633;SDS011;32048;49.902;22.508;2022-10-16T03:48:52;12.63;;;8.55;;
37633;SDS011;32048;49.902;22.508;2022-10-16T03:51:19;16.90;;;8.95;;
37633;SDS011;32048;49.902;22.508;2022-10-16T03:53:46;13.27;;;8.63;;
37633;SDS011;32048;49.902;22.508;2022-10-16T03:56:13;16.75;;;8.90;;
37633;SDS011;32048;49.902;22.508;2022-10-16T03:58:40;14.10;;;8.80;;
37633;SDS011;32048;49.902;22.508;2022-10-16T04:01:07;15.68;;;9.10;;
37633;SDS011;32048;49.902;22.508;2022-10-16T04:03:34;14.80;;;8.88;;
37633;SDS011;32048;49.902;22.508;2022-10-16T04:06:01;12.02;;;9.07;;
37633;SDS011;32048;49.902;22.508;2022-10-16T04:08:28;16.13;;;9.18;;
37633;SDS011;32048;49.902;22.508;2022-10-16T04:10:55;14.68;;;8.57;;
37633;SDS011;32048;49.902;22.508;2022-10-16T04:13:22;17.73;;;8.93;;
37633;SDS011;32048;49.902;22.508;2022-10-16T04:15:49;14.43;;;8.93;;
37633;SDS011;32048;49.902;22.508;2022-10-16T04:18:16;13.35;;;8.93;;
37633;SDS011;32048;49.902;22.508;2022-10-16T04:20:43;12.35;;;8.38;;
37633;SDS011;32048;49.902;22.508;2022-10-16T04:23:09;14.32;;;9.00;;
37633;SDS011;32048;49.902;22.508;2022-10-16T04:25:36;16.17;;;8.50;;
37633;SDS011;32048;49.902;22.508;2022-10-16T04:28:03;16.65;;;7.93;;
37633;SDS011;32048;49.902;22.508;2022-10-16T04:30:30;15.52;;;7.95;;
37633;SDS011;32048;49.902;22.508;2022-10-16T04:32:57;17.00;;;8.57;;
37633;SDS011;32048;49.902;22.508;2022-10-16T04:35:24;17.27;;;9.23;;
37633;SDS011;32048;49.902;22.508;2022-10-16T04:37:51;17.80;;;9.65;;
37633;SDS011;32048;49.902;22.508;2022-10-16T04:40:18;13.20;;;8.43;;
37633;SDS011;32048;49.902;22.508;2022-10-16T04:42:45;18.00;;;9.05;;
37633;SDS011;32048;49.902;22.508;2022-10-16T04:45:12;11.70;;;8.68;;
37633;SDS011;32048;49.902;22.508;2022-10-16T04:47:42;14.95;;;8.60;;
37633;SDS011;32048;49.902;22.508;2022-10-16T04:50:09;13.18;;;8.15;;
37633;SDS011;32048;49.902;22.508;2022-10-16T04:52:36;15.57;;;8.88;;
37633;SDS011;32048;49.902;22.508;2022-10-16T04:55:03;15.43;;;8.85;;
37633;SDS011;32048;49.902;22.508;2022-10-16T04:57:31;15.20;;;8.63;;
37633;SDS011;32048;49.902;22.508;2022-10-16T04:59:59;15.77;;;8.48;;
37633;SDS011;32048;49.902;22.508;2022-10-16T05:02:26;15.60;;;9.20;;
37633;SDS011;32048;49.902;22.508;2022-10-16T05:04:53;11.85;;;8.30;;
37633;SDS011;32048;49.902;22.508;2022-10-16T05:07:20;12.68;;;8.75;;
37633;SDS011;32048;49.902;22.508;2022-10-16T05:09:47;12.43;;;8.00;;
37633;SDS011;32048;49.902;22.508;2022-10-16T05:12:14;12.27;;;8.27;;
37633;SDS011;32048;49.902;22.508;2022-10-16T05:14:41;11.25;;;7.10;;
37633;SDS011;32048;49.902;22.508;2022-10-16T05:17:08;11.77;;;7.15;;
37633;SDS011;32048;49.902;22.508;2022-10-16T05:19:35;13.90;;;7.38;;
37633;SDS011;32048;49.902;22.508;2022-10-16T05:22:02;11.77;;;7.10;;
37633;SDS011;32048;49.902;22.508;2022-10-16T05:24:29;12.45;;;7.70;;
37633;SDS011;32048;49.902;22.508;2022-10-16T05:26:56;12.35;;;6.85;;
37633;SDS011;32048;49.902;22.508;2022-10-16T05:29:23;15.23;;;7.30;;
37633;SDS011;32048;49.902;22.508;2022-10-16T05:31:51;12.45;;;6.57;;
37633;SDS011;32048;49.902;22.508;2022-10-16T05:34:19;12.75;;;7.18;;
37633;SDS011;32048;49.902;22.508;2022-10-16T05:36:47;9.35;;;6.22;;
37633;SDS011;32048;49.902;22.508;2022-10-16T05:39:14;9.35;;;6.07;;
37633;SDS011;32048;49.902;22.508;2022-10-16T05:41:42;10.70;;;6.50;;
37633;SDS011;32048;49.902;22.508;2022-10-16T05:44:10;11.95;;;7.20;;
37633;SDS011;32048;49.902;22.508;2022-10-16T05:46:37;10.10;;;6.65;;
37633;SDS011;32048;49.902;22.508;2022-10-16T05:49:04;14.50;;;6.75;;
37633;SDS011;32048;49.902;22.508;2022-10-16T05:51:31;13.00;;;6.40;;
37633;SDS011;32048;49.902;22.508;2022-10-16T05:53:58;12.30;;;7.10;;
37633;SDS011;32048;49.902;22.508;2022-10-16T05:56:25;12.88;;;6.88;;
37633;SDS011;32048;49.902;22.508;2022-10-16T05:58:52;12.85;;;7.43;;
37633;SDS011;32048;49.902;22.508;2022-10-16T06:01:19;12.40;;;7.22;;
37633;SDS011;32048;49.902;22.508;2022-10-16T06:03:51;15.63;;;6.68;;
37633;SDS011;32048;49.902;22.508;2022-10-16T06:06:19;11.13;;;7.28;;
37633;SDS011;32048;49.902;22.508;2022-10-16T06:08:49;13.73;;;6.32;;
37633;SDS011;32048;49.902;22.508;2022-10-16T06:11:17;11.27;;;7.28;;
37633;SDS011;32048;49.902;22.508;2022-10-16T06:13:48;13.10;;;7.03;;
37633;SDS011;32048;49.902;22.508;2022-10-16T06:16:20;12.20;;;6.88;;
37633;SDS011;32048;49.902;22.508;2022-10-16T06:18:47;12.98;;;6.88;;
37633;SDS011;32048;49.902;22.508;2022-10-16T06:21:17;10.20;;;6.82;;
37633;SDS011;32048;49.902;22.508;2022-10-16T06:23:46;12.43;;;7.07;;
37633;SDS011;32048;49.902;22.508;2022-10-16T06:26:15;9.95;;;6.20;;
37633;SDS011;32048;49.902;22.508;2022-10-16T06:28:44;10.63;;;6.45;;
37633;SDS011;32048;49.902;22.508;2022-10-16T06:31:11;10.18;;;6.55;;
37633;SDS011;32048;49.902;22.508;2022-10-16T06:33:39;10.30;;;6.55;;
37633;SDS011;32048;49.902;22.508;2022-10-16T06:36:07;10.52;;;6.18;;
37633;SDS011;32048;49.902;22.508;2022-10-16T06:38:36;11.38;;;6.80;;
37633;SDS011;32048;49.902;22.508;2022-10-16T06:41:04;17.75;;;7.78;;
37633;SDS011;32048;49.902;22.508;2022-10-16T06:43:32;11.60;;;6.22;;
37633;SDS011;32048;49.902;22.508;2022-10-16T06:46:02;13.77;;;6.95;;
37633;SDS011;32048;49.902;22.508;2022-10-16T06:48:31;12.32;;;6.20;;
37633;SDS011;32048;49.902;22.508;2022-10-16T06:51:02;13.07;;;6.30;;
37633;SDS011;32048;49.902;22.508;2022-10-16T06:53:35;9.77;;;6.70;;
37633;SDS011;32048;49.902;22.508;2022-10-16T06:56:25;9.93;;;6.18;;
37633;SDS011;32048;49.902;22.508;2022-10-16T06:58:53;9.85;;;6.50;;
37633;SDS011;32048;49.902;22.508;2022-10-16T07:01:21;10.98;;;6.03;;
37633;SDS011;32048;49.902;22.508;2022-10-16T07:06:17;10.05;;;5.38;;
37633;SDS011;32048;49.902;22.508;2022-10-16T07:08:46;10.27;;;5.85;;
37633;SDS011;32048;49.902;22.508;2022-10-16T07:11:18;10.70;;;5.85;;
37633;SDS011;32048;49.902;22.508;2022-10-16T07:13:46;10.52;;;5.80;;
37633;SDS011;32048;49.902;22.508;2022-10-16T07:16:22;13.10;;;6.65;;
37633;SDS011;32048;49.902;22.508;2022-10-16T07:18:51;9.25;;;5.78;;
37633;SDS011;32048;49.902;22.508;2022-10-16T07:21:25;8.00;;;5.15;;
37633;SDS011;32048;49.902;22.508;2022-10-16T07:23:58;11.90;;;5.97;;
37633;SDS011;32048;49.902;22.508;2022-10-16T07:26:32;8.10;;;4.93;;
37633;SDS011;32048;49.902;22.508;2022-10-16T07:29:00;10.40;;;4.95;;
37633;SDS011;32048;49.902;22.508;2022-10-16T07:31:28;11.45;;;5.30;;
37633;SDS011;32048;49.902;22.508;2022-10-16T07:33:55;10.38;;;5.72;;
37633;SDS011;32048;49.902;22.508;2022-10-16T07:36:24;12.43;;;5.82;;
37633;SDS011;32048;49.902;22.508;2022-10-16T07:38:51;11.75;;;5.90;;
37633;SDS011;32048;49.902;22.508;2022-10-16T07:41:24;9.15;;;4.63;;
37633;SDS011;32048;49.902;22.508;2022-10-16T07:43:52;11.70;;;5.72;;
37633;SDS011;32048;49.902;22.508;2022-10-16T07:46:20;10.75;;;6.32;;
37633;SDS011;32048;49.902;22.508;2022-10-16T07:51:17;9.30;;;5.63;;
37633;SDS011;32048;49.902;22.508;2022-10-16T07:53:46;8.88;;;5.18;;
37633;SDS011;32048;49.902;22.508;2022-10-16T07:56:14;8.02;;;5.13;;
37633;SDS011;32048;49.902;22.508;2022-10-16T07:58:41;9.73;;;5.00;;
37633;SDS011;32048;49.902;22.508;2022-10-16T08:01:10;8.70;;;5.45;;
37633;SDS011;32048;49.902;22.508;2022-10-16T08:03:43;6.90;;;5.15;;
37633;SDS011;32048;49.902;22.508;2022-10-16T08:06:16;9.93;;;5.50;;
37633;SDS011;32048;49.902;22.508;2022-10-16T08:08:49;9.43;;;4.82;;
37633;SDS011;32048;49.902;22.508;2022-10-16T08:11:16;9.27;;;4.63;;
37633;SDS011;32048;49.902;22.508;2022-10-16T08:13:43;9.25;;;4.68;;
37633;SDS011;32048;49.902;22.508;2022-10-16T08:16:10;10.30;;;5.25;;
37633;SDS011;32048;49.902;22.508;2022-10-16T08:18:38;9.02;;;4.72;;
37633;SDS011;32048;49.902;22.508;2022-10-16T08:21:07;6.55;;;4.20;;
37633;SDS011;32048;49.902;22.508;2022-10-16T08:23:44;9.27;;;4.97;;
37633;SDS011;32048;49.902;22.508;2022-10-16T08:26:11;7.55;;;4.88;;
37633;SDS011;32048;49.902;22.508;2022-10-16T08:28:39;8.10;;;5.00;;
37633;SDS011;32048;49.902;22.508;2022-10-16T08:31:07;6.10;;;4.63;;
37633;SDS011;32048;49.902;22.508;2022-10-16T08:36:04;8.18;;;4.38;;
37633;SDS011;32048;49.902;22.508;2022-10-16T08:38:32;9.35;;;4.68;;
37633;SDS011;32048;49.902;22.508;2022-10-16T08:43:43;8.90;;;4.70;;
37633;SDS011;32048;49.902;22.508;2022-10-16T08:46:25;9.82;;;4.70;;
37633;SDS011;32048;49.902;22.508;2022-10-16T08:48:57;10.07;;;4.20;;
37633;SDS011;32048;49.902;22.508;2022-10-16T08:51:26;8.48;;;4.43;;
37633;SDS011;32048;49.902;22.508;2022-10-16T08:56:49;12.10;;;5.57;;
37633;SDS011;32048;49.902;22.508;2022-10-16T08:59:16;7.57;;;4.95;;
37633;SDS011;32048;49.902;22.508;2022-10-16T09:01:45;8.07;;;4.32;;
37633;SDS011;32048;49.902;22.508;2022-10-16T09:09:53;7.90;;;4.50;;
37633;SDS011;32048;49.902;22.508;2022-10-16T09:23:19;6.63;;;4.43;;
37633;SDS011;32048;49.902;22.508;2022-10-16T09:25:58;6.97;;;4.07;;
37633;SDS011;32048;49.902;22.508;2022-10-16T09:28:25;6.55;;;4.20;;
37633;SDS011;32048;49.902;22.508;2022-10-16T09:30:52;10.50;;;4.18;;
37633;SDS011;32048;49.902;22.508;2022-10-16T09:33:22;6.95;;;3.85;;
37633;SDS011;32048;49.902;22.508;2022-10-16T09:35:55;6.78;;;3.95;;
37633;SDS011;32048;49.902;22.508;2022-10-16T09:38:35;10.75;;;4.15;;
37633;SDS011;32048;49.902;22.508;2022-10-16T09:41:19;10.13;;;4.10;;
37633;SDS011;32048;49.902;22.508;2022-10-16T09:48:49;7.78;;;4.05;;
37633;SDS011;32048;49.902;22.508;2022-10-16T09:51:26;7.07;;;3.50;;
37633;SDS011;32048;49.902;22.508;2022-10-16T09:56:48;6.80;;;3.42;;
37633;SDS011;32048;49.902;22.508;2022-10-16T09:59:19;6.00;;;3.53;;
37633;SDS011;32048;49.902;22.508;2022-10-16T10:01:51;6.32;;;4.25;;
37633;SDS011;32048;49.902;22.508;2022-10-16T10:04:22;7.97;;;3.97;;
37633;SDS011;32048;49.902;22.508;2022-10-16T10:06:53;7.60;;;3.72;;
37633;SDS011;32048;49.902;22.508;2022-10-16T10:14:37;7.53;;;3.88;;
37633;SDS011;32048;49.902;22.508;2022-10-16T10:19:46;7.88;;;4.00;;
37633;SDS011;32048;49.902;22.508;2022-10-16T10:22:50;7.70;;;4.03;;
37633;SDS011;32048;49.902;22.508;2022-10-16T10:27:45;4.72;;;3.40;;
37633;SDS011;32048;49.902;22.508;2022-10-16T10:30:19;7.13;;;3.92;;
37633;SDS011;32048;49.902;22.508;2022-10-16T10:35:33;6.75;;;4.28;;
37633;SDS011;32048;49.902;22.508;2022-10-16T10:41:09;5.82;;;3.63;;
37633;SDS011;32048;49.902;22.508;2022-10-16T10:47:05;6.85;;;4.10;;
37633;SDS011;32048;49.902;22.508;2022-10-16T10:49:49;8.67;;;3.97;;
37633;SDS011;32048;49.902;22.508;2022-10-16T10:55:43;6.90;;;3.88;;
37633;SDS011;32048;49.902;22.508;2022-10-16T11:01:12;7.38;;;3.70;;
37633;SDS011;32048;49.902;22.508;2022-10-16T11:03:53;5.82;;;3.90;;
37633;SDS011;32048;49.902;22.508;2022-10-16T11:06:48;7.22;;;4.25;;
37633;SDS011;32048;49.902;22.508;2022-10-16T11:12:21;6.15;;;3.67;;
37633;SDS011;32048;49.902;22.508;2022-10-16T11:15:17;7.13;;;3.60;;
37633;SDS011;32048;49.902;22.508;2022-10-16T11:17:52;6.30;;;3.60;;
37633;SDS011;32048;49.902;22.508;2022-10-16T11:20:24;6.18;;;4.25;;
37633;SDS011;32048;49.902;22.508;2022-10-16T11:23:00;6.70;;;4.05;;
37633;SDS011;32048;49.902;22.508;2022-10-16T11:25:35;6.75;;;3.20;;
37633;SDS011;32048;49.902;22.508;2022-10-16T11:28:16;6.82;;;3.33;;
37633;SDS011;32048;49.902;22.508;2022-10-16T11:30:45;7.68;;;4.28;;
37633;SDS011;32048;49.902;22.508;2022-10-16T11:46:33;8.00;;;3.65;;
37633;SDS011;32048;49.902;22.508;2022-10-16T11:49:25;8.55;;;4.03;;
37633;SDS011;32048;49.902;22.508;2022-10-16T11:52:11;8.10;;;4.28;;
37633;SDS011;32048;49.902;22.508;2022-10-16T11:54:48;5.68;;;4.00;;
37633;SDS011;32048;49.902;22.508;2022-10-16T11:57:38;6.75;;;3.78;;
37633;SDS011;32048;49.902;22.508;2022-10-16T12:00:29;5.68;;;4.30;;
37633;SDS011;32048;49.902;22.508;2022-10-16T12:08:24;5.55;;;4.15;;
37633;SDS011;32048;49.902;22.508;2022-10-16T12:10:52;6.65;;;3.78;;
37633;SDS011;32048;49.902;22.508;2022-10-16T12:18:42;5.97;;;4.00;;
37633;SDS011;32048;49.902;22.508;2022-10-16T12:21:11;8.07;;;3.70;;
37633;SDS011;32048;49.902;22.508;2022-10-16T12:23:49;8.68;;;5.18;;
37633;SDS011;32048;49.902;22.508;2022-10-16T12:26:28;6.78;;;4.07;;
37633;SDS011;32048;49.902;22.508;2022-10-16T12:29:14;7.50;;;4.20;;
37633;SDS011;32048;49.902;22.508;2022-10-16T12:31:57;5.63;;;4.15;;
37633;SDS011;32048;49.902;22.508;2022-10-16T12:34:28;5.05;;;3.72;;
37633;SDS011;32048;49.902;22.508;2022-10-16T12:37:13;7.82;;;3.97;;
37633;SDS011;32048;49.902;22.508;2022-10-16T12:39:52;8.18;;;3.85;;
37633;SDS011;32048;49.902;22.508;2022-10-16T12:45:24;5.80;;;3.92;;
37633;SDS011;32048;49.902;22.508;2022-10-16T12:47:52;5.93;;;3.72;;
37633;SDS011;32048;49.902;22.508;2022-10-16T12:53:03;7.32;;;4.43;;
37633;SDS011;32048;49.902;22.508;2022-10-16T12:55:54;10.35;;;5.68;;
37633;SDS011;32048;49.902;22.508;2022-10-16T13:06:45;5.90;;;3.58;;
37633;SDS011;32048;49.902;22.508;2022-10-16T13:09:41;7.45;;;3.88;;
37633;SDS011;32048;49.902;22.508;2022-10-16T13:28:44;5.13;;;3.85;;
37633;SDS011;32048;49.902;22.508;2022-10-16T13:31:30;7.43;;;3.92;;
37633;SDS011;32048;49.902;22.508;2022-10-16T13:33:58;9.68;;;4.05;;
37633;SDS011;32048;49.902;22.508;2022-10-16T13:36:33;7.70;;;4.43;;
37633;SDS011;32048;49.902;22.508;2022-10-16T13:41:38;5.78;;;3.63;;
37633;SDS011;32048;49.902;22.508;2022-10-16T13:44:08;5.72;;;3.50;;
37633;SDS011;32048;49.902;22.508;2022-10-16T13:46:42;4.20;;;3.22;;
37633;SDS011;32048;49.902;22.508;2022-10-16T13:49:13;6.30;;;4.03;;
37633;SDS011;32048;49.902;22.508;2022-10-16T13:51:53;7.93;;;4.10;;
37633;SDS011;32048;49.902;22.508;2022-10-16T13:54:22;12.38;;;3.60;;
37633;SDS011;32048;49.902;22.508;2022-10-16T13:56:49;5.88;;;3.42;;
37633;SDS011;32048;49.902;22.508;2022-10-16T13:59:35;5.90;;;3.78;;
37633;SDS011;32048;49.902;22.508;2022-10-16T14:02:16;7.45;;;3.83;;
37633;SDS011;32048;49.902;22.508;2022-10-16T14:04:52;6.50;;;3.80;;
37633;SDS011;32048;49.902;22.508;2022-10-16T14:07:24;5.27;;;3.63;;
37633;SDS011;32048;49.902;22.508;2022-10-16T14:10:00;6.85;;;4.43;;
37633;SDS011;32048;49.902;22.508;2022-10-16T14:12:29;8.77;;;4.00;;
37633;SDS011;32048;49.902;22.508;2022-10-16T14:14:57;7.57;;;3.58;;
37633;SDS011;32048;49.902;22.508;2022-10-16T14:17:29;8.20;;;4.22;;
37633;SDS011;32048;49.902;22.508;2022-10-16T14:20:00;4.13;;;3.30;;
37633;SDS011;32048;49.902;22.508;2022-10-16T14:25:00;5.78;;;3.90;;
37633;SDS011;32048;49.902;22.508;2022-10-16T14:27:30;8.50;;;4.40;;
37633;SDS011;32048;49.902;22.508;2022-10-16T14:30:11;7.68;;;4.78;;
37633;SDS011;32048;49.902;22.508;2022-10-16T14:32:39;7.07;;;3.80;;
37633;SDS011;32048;49.902;22.508;2022-10-16T14:37:59;5.68;;;3.63;;
37633;SDS011;32048;49.902;22.508;2022-10-16T14:40:31;6.53;;;4.00;;
37633;SDS011;32048;49.902;22.508;2022-10-16T14:43:00;5.80;;;4.05;;
37633;SDS011;32048;49.902;22.508;2022-10-16T14:45:30;7.57;;;4.03;;
37633;SDS011;32048;49.902;22.508;2022-10-16T14:48:01;6.18;;;3.83;;
37633;SDS011;32048;49.902;22.508;2022-10-16T14:50:31;8.65;;;4.45;;
37633;SDS011;32048;49.902;22.508;2022-10-16T14:52:58;7.93;;;4.22;;
37633;SDS011;32048;49.902;22.508;2022-10-16T14:55:25;7.80;;;4.30;;
37633;SDS011;32048;49.902;22.508;2022-10-16T14:57:52;9.02;;;5.45;;
37633;SDS011;32048;49.902;22.508;2022-10-16T15:00:26;7.15;;;5.13;;
37633;SDS011;32048;49.902;22.508;2022-10-16T15:02:53;9.93;;;5.78;;
37633;SDS011;32048;49.902;22.508;2022-10-16T15:05:24;16.92;;;7.97;;
37633;SDS011;32048;49.902;22.508;2022-10-16T15:07:54;15.60;;;6.82;;
37633;SDS011;32048;49.902;22.508;2022-10-16T15:10:22;13.88;;;6.97;;
37633;SDS011;32048;49.902;22.508;2022-10-16T15:12:50;10.82;;;7.38;;
37633;SDS011;32048;49.902;22.508;2022-10-16T15:15:26;10.50;;;5.35;;
37633;SDS011;32048;49.902;22.508;2022-10-16T15:18:00;10.48;;;5.13;;
37633;SDS011;32048;49.902;22.508;2022-10-16T15:20:30;9.45;;;5.43;;
37633;SDS011;32048;49.902;22.508;2022-10-16T15:23:01;11.55;;;5.55;;
37633;SDS011;32048;49.902;22.508;2022-10-16T15:25:41;6.95;;;5.18;;
37633;SDS011;32048;49.902;22.508;2022-10-16T15:28:13;10.43;;;4.38;;
37633;SDS011;32048;49.902;22.508;2022-10-16T15:30:41;7.20;;;4.53;;
37633;SDS011;32048;49.902;22.508;2022-10-16T15:33:11;7.18;;;5.10;;
37633;SDS011;32048;49.902;22.508;2022-10-16T15:35:40;32.40;;;18.35;;
37633;SDS011;32048;49.902;22.508;2022-10-16T15:38:09;14.25;;;5.82;;
37633;SDS011;32048;49.902;22.508;2022-10-16T15:40:39;12.13;;;5.82;;
37633;SDS011;32048;49.902;22.508;2022-10-16T15:43:07;7.70;;;5.22;;
37633;SDS011;32048;49.902;22.508;2022-10-16T15:45:34;8.40;;;4.93;;
37633;SDS011;32048;49.902;22.508;2022-10-16T15:48:01;12.90;;;5.38;;
37633;SDS011;32048;49.902;22.508;2022-10-16T15:50:28;10.48;;;5.93;;
37633;SDS011;32048;49.902;22.508;2022-10-16T15:52:57;10.00;;;5.30;;
37633;SDS011;32048;49.902;22.508;2022-10-16T15:55:24;8.20;;;5.50;;
37633;SDS011;32048;49.902;22.508;2022-10-16T15:57:51;10.00;;;4.93;;
37633;SDS011;32048;49.902;22.508;2022-10-16T16:00:18;10.35;;;6.47;;
37633;SDS011;32048;49.902;22.508;2022-10-16T16:02:52;15.25;;;7.93;;
37633;SDS011;32048;49.902;22.508;2022-10-16T16:05:20;12.48;;;6.88;;
37633;SDS011;32048;49.902;22.508;2022-10-16T16:07:48;11.95;;;6.50;;
37633;SDS011;32048;49.902;22.508;2022-10-16T16:10:15;10.75;;;6.00;;
37633;SDS011;32048;49.902;22.508;2022-10-16T16:12:43;12.07;;;5.30;;
37633;SDS011;32048;49.902;22.508;2022-10-16T16:15:15;10.57;;;6.82;;
37633;SDS011;32048;49.902;22.508;2022-10-16T16:17:42;13.02;;;7.40;;
37633;SDS011;32048;49.902;22.508;2022-10-16T16:20:11;14.10;;;7.82;;
37633;SDS011;32048;49.902;22.508;2022-10-16T16:22:38;13.05;;;7.32;;
37633;SDS011;32048;49.902;22.508;2022-10-16T16:25:05;12.98;;;6.80;;
37633;SDS011;32048;49.902;22.508;2022-10-16T16:27:32;11.88;;;6.60;;
37633;SDS011;32048;49.902;22.508;2022-10-16T16:30:00;79.57;;;36.55;;
37633;SDS011;32048;49.902;22.508;2022-10-16T16:32:30;13.05;;;8.15;;
37633;SDS011;32048;49.902;22.508;2022-10-16T16:34:57;18.77;;;7.57;;
37633;SDS011;32048;49.902;22.508;2022-10-16T16:37:24;12.40;;;6.82;;
37633;SDS011;32048;49.902;22.508;2022-10-16T16:39:51;19.15;;;7.20;;
37633;SDS011;32048;49.902;22.508;2022-10-16T16:42:20;11.02;;;6.95;;
37633;SDS011;32048;49.902;22.508;2022-10-16T16:44:48;12.38;;;7.13;;
37633;SDS011;32048;49.902;22.508;2022-10-16T16:47:14;14.75;;;7.28;;
37633;SDS011;32048;49.902;22.508;2022-10-16T16:49:41;16.70;;;10.82;;
37633;SDS011;32048;49.902;22.508;2022-10-16T16:52:08;10.40;;;7.20;;
37633;SDS011;32048;49.902;22.508;2022-10-16T16:54:35;14.23;;;7.93;;
37633;SDS011;32048;49.902;22.508;2022-10-16T16:57:02;14.00;;;7.72;;
37633;SDS011;32048;49.902;22.508;2022-10-16T16:59:30;12.63;;;8.00;;
37633;SDS011;32048;49.902;22.508;2022-10-16T17:01:59;14.13;;;7.40;;
37633;SDS011;32048;49.902;22.508;2022-10-16T17:04:26;12.15;;;6.53;;
37633;SDS011;32048;49.902;22.508;2022-10-16T17:06:54;12.15;;;8.05;;
37633;SDS011;32048;49.902;22.508;2022-10-16T17:09:21;16.25;;;7.75;;
37633;SDS011;32048;49.902;22.508;2022-10-16T17:11:48;14.35;;;8.23;;